KRNO/RNO METAR and TAF weather

Enter ICAO airport designator
Station Type Date Time Source
KRNO METAR 2020/04/06 13:55 UTC NOAA

KRNO 061355Z 27003KT 10SM FEW039 SCT100 BKN180 00/M02 A2973 RMK AO2 SLP066 MTN TOPS OBSCD DSNT SW THRU W T00001017 $


Station Type Date Time Source
KRNO Decoded METAR 2020/04/06 13:55 UTC NOAA

RENO/TAHOE INTERNATIONAL AIRPORT, NV, United States (KRNO) 39-29N 119-46W 1342M
Apr 06, 2020 - 09:55 AM EDT / 2020.04.06 1355 UTC
Wind: from the W (270 degrees) at 3 MPH (3 KT):0
Visibility: 10 mile(s):0
Sky conditions: mostly cloudy
Temperature: 32.0 F (0.0 C)
Dew Point: 28.9 F (-1.7 C)
Relative Humidity: 88%
Pressure (altimeter): 29.73 in. Hg (1006 hPa)
ob: KRNO 061355Z 27003KT 10SM FEW039 SCT100 BKN180 00/M02 A2973 RMK AO2 SLP066 MTN TOPS OBSCD DSNT SW THRU W T00001017
cycle: 14

Station Type Date Time Source
KRNO TAF 2020/04/06 12:39 UTC NOAA

TAF KRNO 061136Z 0612/0712 30008KT P6SM VCSH SCT035 BKN060
FM062200 35009KT P6SM -SHRA SCT030 BKN050
TEMPO 0701/0704 4SM -SNRA BKN025
FM070700 VRB04KT P6SM VCSH SCT020 OVC040

Example: see airport list